Time;durP1;ratioP1;P1;durP2;ratioP2;P2;SDS_P1;SDS_P2;PMS_P1;PMS_P2;Temp;Humidity;BMP_temperature;BMP_pressure;BME280_temperature;BME280_humidity;BME280_pressure;Samples;Min_cycle;Max_cycle;Signal;HPM_P1;HPM_P2
2022/04/06 00:01:27;;;;;;;8.63;5.20;;;8.10;99.90;;;;;;4140157;28;20025;-60
2022/04/06 00:03:28;;;;;;;8.57;6.07;;;8.10;99.90;;;;;;4125668;28;20034;-55
2022/04/06 00:05:29;;;;;;;8.70;5.80;;;8.10;99.90;;;;;;4126146;28;20038;-54
2022/04/06 00:07:30;;;;;;;8.37;5.50;;;8.10;99.90;;;;;;4124961;28;20827;-57
2022/04/06 00:09:31;;;;;;;10.30;5.87;;;8.10;99.90;;;;;;4124563;28;20042;-55
2022/04/06 00:11:33;;;;;;;8.00;5.47;;;8.10;99.90;;;;;;4155758;28;20131;-63
2022/04/06 00:13:34;;;;;;;8.10;5.63;;;8.00;99.90;;;;;;4127097;28;20487;-59
2022/04/06 00:15:35;;;;;;;8.03;5.67;;;8.00;99.90;;;;;;4124626;28;20031;-55
2022/04/06 00:17:38;;;;;;;10.70;6.00;;;8.00;99.90;;;;;;4126428;28;20046;-56
2022/04/06 00:19:39;;;;;;;10.20;6.43;;;8.00;99.90;;;;;;4124894;28;20166;-60
2022/04/06 00:21:40;;;;;;;9.97;5.43;;;8.00;99.90;;;;;;4126433;28;20603;-61
2022/04/06 00:23:42;;;;;;;10.57;5.27;;;8.00;99.90;;;;;;4124286;28;20026;-57
2022/04/06 00:25:43;;;;;;;9.30;5.60;;;8.00;99.90;;;;;;4126463;28;20865;-55
2022/04/06 00:27:44;;;;;;;11.07;5.77;;;8.00;99.90;;;;;;4124905;28;20030;-60
2022/04/06 00:29:45;;;;;;;9.77;6.03;;;8.10;99.90;;;;;;4126188;28;20513;-60
2022/04/06 00:31:46;;;;;;;8.23;5.53;;;8.00;99.90;;;;;;4124881;28;20030;-56
2022/04/06 00:33:48;;;;;;;11.03;6.00;;;8.10;99.90;;;;;;4125442;28;20112;-54
2022/04/06 00:35:50;;;;;;;9.50;5.30;;;8.00;99.90;;;;;;4125912;28;20035;-64
2022/04/06 00:37:52;;;;;;;8.57;6.13;;;8.00;99.90;;;;;;4125063;28;20026;-59
2022/04/06 00:39:53;;;;;;;12.00;5.67;;;7.90;99.90;;;;;;4125816;28;20487;-60
2022/04/06 00:41:54;;;;;;;9.90;5.73;;;7.90;99.90;;;;;;4124579;28;20109;-62
2022/04/06 00:44:15;;;;;;;9.57;6.30;;;7.90;99.90;;;;;;4126467;28;20038;-58
2022/04/06 00:46:17;;;;;;;8.53;5.63;;;7.80;99.90;;;;;;4123958;28;20080;-60
2022/04/06 00:48:18;;;;;;;8.67;5.43;;;7.80;99.90;;;;;;4124705;28;20026;-61
2022/04/06 00:50:20;;;;;;;10.37;6.33;;;7.80;99.90;;;;;;4124199;28;20038;-57
2022/04/06 00:52:21;;;;;;;11.77;6.77;;;7.80;99.90;;;;;;4124897;28;20038;-60
2022/04/06 00:54:23;;;;;;;9.73;5.57;;;7.80;99.90;;;;;;4124258;28;20046;-56
2022/04/06 00:56:24;;;;;;;8.03;6.27;;;7.80;99.90;;;;;;4126032;28;20088;-52
2022/04/06 00:58:26;;;;;;;9.20;6.20;;;7.80;99.90;;;;;;4124090;28;20034;-59
2022/04/06 01:00:27;;;;;;;8.27;5.50;;;7.80;99.90;;;;;;4124530;28;20105;-57
2022/04/06 01:02:28;;;;;;;9.77;5.87;;;7.80;99.90;;;;;;4124105;28;20491;-60
2022/04/06 01:04:29;;;;;;;12.20;6.37;;;7.80;99.90;;;;;;4123936;28;20034;-57
2022/04/06 01:06:31;;;;;;;13.83;6.50;;;7.80;99.90;;;;;;4124323;28;20105;-53
2022/04/06 01:08:32;;;;;;;9.17;6.57;;;7.70;99.90;;;;;;4124914;28;20014;-57
2022/04/06 01:10:33;;;;;;;9.33;6.00;;;7.80;99.90;;;;;;4123691;28;20045;-58
2022/04/06 01:12:41;;;;;;;10.73;5.47;;;7.70;99.90;;;;;;4124846;28;20034;-57
2022/04/06 01:14:42;;;;;;;9.03;5.63;;;7.70;99.90;;;;;;4125047;28;20052;-58
2022/04/06 01:17:03;;;;;;;7.77;6.07;;;7.60;99.90;;;;;;4124194;28;20073;-57
2022/04/06 01:19:04;;;;;;;9.30;5.90;;;7.60;99.90;;;;;;4124853;28;20438;-54
2022/04/06 01:21:06;;;;;;;8.37;5.77;;;7.60;99.90;;;;;;4123888;28;20645;-57
2022/04/06 01:23:07;;;;;;;11.40;5.87;;;7.60;99.90;;;;;;4125734;28;20499;-57
2022/04/06 01:25:08;;;;;;;10.73;5.80;;;7.60;99.90;;;;;;4124077;28;20030;-57
2022/04/06 01:27:10;;;;;;;8.00;5.77;;;7.60;99.90;;;;;;4126101;28;20038;-56
2022/04/06 01:29:11;;;;;;;8.73;5.73;;;7.70;99.90;;;;;;4123641;28;20481;-58
2022/04/06 01:31:13;;;;;;;8.90;5.90;;;7.70;99.90;;;;;;4125478;28;20034;-54
2022/04/06 01:33:14;;;;;;;10.60;6.20;;;7.70;99.90;;;;;;4123554;28;20030;-56
2022/04/06 01:35:15;;;;;;;8.80;5.90;;;7.80;99.90;;;;;;4125291;28;20038;-55
2022/04/06 01:37:17;;;;;;;12.07;6.50;;;7.70;99.90;;;;;;4123987;28;20815;-54
2022/04/06 01:39:18;;;;;;;9.00;6.37;;;7.80;99.90;;;;;;4125209;28;20030;-59
2022/04/06 01:41:19;;;;;;;9.53;7.00;;;7.70;99.90;;;;;;4123200;28;20046;-56
2022/04/06 01:43:21;;;;;;;8.90;6.10;;;7.70;99.90;;;;;;4125004;28;20022;-57
2022/04/06 01:45:22;;;;;;;10.57;6.17;;;7.70;99.90;;;;;;4124061;28;20042;-59
2022/04/06 01:47:23;;;;;;;10.33;6.60;;;7.80;99.90;;;;;;4123448;28;20557;-55
2022/04/06 01:54:04;;;;;;;11.70;5.93;;;8.00;99.90;;;;;;4123386;28;20042;-59
2022/04/06 01:56:05;;;;;;;8.77;5.50;;;8.00;99.90;;;;;;4124008;28;20443;-66
2022/04/06 01:58:08;;;;;;;13.93;6.90;;;8.00;99.90;;;;;;4124142;28;20077;-58
2022/04/06 02:00:13;;;;;;;9.03;6.43;;;8.00;99.90;;;;;;4123649;28;20840;-55
2022/04/06 02:02:16;;;;;;;8.60;6.23;;;8.00;99.90;;;;;;4124474;28;20049;-53
2022/04/06 02:04:17;;;;;;;10.43;6.17;;;8.00;99.90;;;;;;4124189;28;20026;-61
2022/04/06 02:06:18;;;;;;;11.47;6.80;;;8.00;99.90;;;;;;4124662;28;20252;-55
2022/04/06 02:08:19;;;;;;;9.50;6.47;;;8.00;99.90;;;;;;4123391;28;20185;-58
2022/04/06 02:10:20;;;;;;;11.33;7.80;;;8.00;99.90;;;;;;4124313;28;20026;-57
2022/04/06 02:12:22;;;;;;;14.00;7.70;;;8.00;99.90;;;;;;4123841;28;20097;-59
2022/04/06 02:14:23;;;;;;;12.33;8.50;;;8.00;99.90;;;;;;4124837;28;20034;-57
2022/04/06 02:16:24;;;;;;;18.03;8.27;;;8.00;99.90;;;;;;4123086;28;20046;-52
2022/04/06 02:18:26;;;;;;;12.13;7.47;;;7.90;99.90;;;;;;4125157;28;20108;-54
2022/04/06 02:20:27;;;;;;;11.90;7.77;;;8.00;99.90;;;;;;4123092;28;20034;-57
2022/04/06 02:22:28;;;;;;;16.27;8.27;;;8.00;99.90;;;;;;4123398;28;20042;-62
2022/04/06 02:24:29;;;;;;;13.30;8.03;;;7.90;99.90;;;;;;4121942;28;20042;-57
2022/04/06 02:26:30;;;;;;;13.23;7.70;;;7.90;99.90;;;;;;4124280;28;20050;-58
2022/04/06 02:28:32;;;;;;;10.13;7.20;;;7.90;99.90;;;;;;4123167;28;20364;-54
2022/04/06 02:30:33;;;;;;;15.77;8.10;;;8.00;99.90;;;;;;4121984;28;20195;-56
2022/04/06 02:32:34;;;;;;;15.87;7.83;;;8.00;99.90;;;;;;4124049;28;20344;-62
2022/04/06 02:34:36;;;;;;;14.23;8.17;;;8.00;99.90;;;;;;4122797;28;20093;-57
2022/04/06 02:36:37;;;;;;;11.57;7.63;;;8.00;99.90;;;;;;4124206;28;20034;-56
2022/04/06 02:38:38;;;;;;;12.37;7.90;;;8.00;99.90;;;;;;4122865;28;20042;-60
2022/04/06 02:40:40;;;;;;;19.73;8.63;;;8.00;99.90;;;;;;4124284;28;21126;-61
2022/04/06 02:42:42;;;;;;;14.30;8.33;;;8.00;99.90;;;;;;4123137;28;20105;-59
2022/04/06 02:44:43;;;;;;;13.30;8.60;;;8.00;99.90;;;;;;4124185;28;20054;-58
2022/04/06 02:46:46;;;;;;;21.57;9.37;;;7.90;99.90;;;;;;4122180;28;20084;-55
2022/04/06 02:48:47;;;;;;;17.53;9.07;;;7.80;99.90;;;;;;4124314;28;20653;-60
2022/04/06 02:50:48;;;;;;;16.90;8.60;;;7.70;99.90;;;;;;4122307;28;20380;-57
2022/04/06 02:52:49;;;;;;;19.87;9.83;;;7.60;99.90;;;;;;4123948;28;20104;-61
2022/04/06 02:54:52;;;;;;;19.77;8.83;;;7.50;99.90;;;;;;4122459;28;20446;-63
2022/04/06 02:56:53;;;;;;;15.90;9.07;;;7.50;99.90;;;;;;4123513;28;20034;-54
2022/04/06 02:58:54;;;;;;;13.70;8.57;;;7.40;99.90;;;;;;4122622;28;20015;-58
2022/04/06 03:00:56;;;;;;;12.20;8.77;;;7.30;99.90;;;;;;4123639;28;20035;-59
2022/04/06 03:02:58;;;;;;;17.80;9.07;;;7.30;99.90;;;;;;4123526;28;20281;-61
2022/04/06 03:04:59;;;;;;;13.50;8.13;;;7.30;99.90;;;;;;4122926;28;20038;-55
2022/04/06 03:07:00;;;;;;;13.07;7.97;;;7.30;99.90;;;;;;4123447;28;20039;-62
2022/04/06 03:09:01;;;;;;;10.60;7.40;;;7.20;99.90;;;;;;4122603;28;20105;-58
2022/04/06 03:11:03;;;;;;;8.97;6.67;;;7.20;99.90;;;;;;4123472;28;20096;-55
2022/04/06 03:13:04;;;;;;;14.57;8.07;;;7.20;99.90;;;;;;4122237;28;20499;-58
2022/04/06 03:15:06;;;;;;;17.43;7.73;;;7.20;99.90;;;;;;4123981;28;20050;-58
2022/04/06 03:17:07;;;;;;;10.87;7.53;;;7.20;99.90;;;;;;4121907;28;20096;-56
2022/04/06 03:19:08;;;;;;;13.03;8.23;;;7.30;99.90;;;;;;4123712;28;20089;-56
2022/04/06 03:21:09;;;;;;;18.67;7.43;;;7.20;99.90;;;;;;4122539;28;20061;-55
2022/04/06 03:23:10;;;;;;;12.33;7.67;;;7.20;99.90;;;;;;4123980;28;20450;-55
2022/04/06 03:25:11;;;;;;;16.77;9.30;;;7.20;99.90;;;;;;4122521;28;20038;-54
2022/04/06 03:27:13;;;;;;;11.63;7.50;;;7.20;99.90;;;;;;4122461;28;20034;-58
2022/04/06 03:29:14;;;;;;;11.97;7.17;;;7.20;99.90;;;;;;4122780;28;20047;-58
2022/04/06 03:31:16;;;;;;;11.00;7.10;;;7.30;99.90;;;;;;4123235;28;20443;-59
2022/04/06 03:33:17;;;;;;;11.07;7.50;;;7.40;99.90;;;;;;4124392;28;20096;-57
2022/04/06 03:35:18;;;;;;;15.43;8.10;;;7.40;99.90;;;;;;4125769;28;20046;-60
2022/04/06 03:37:19;;;;;;;11.20;7.50;;;7.40;99.90;;;;;;4126584;28;20072;-54
2022/04/06 03:39:20;;;;;;;11.63;7.47;;;7.40;99.90;;;;;;4125249;28;20046;-54
2022/04/06 03:41:21;;;;;;;10.90;6.97;;;7.40;99.90;;;;;;4125444;28;20046;-58
2022/04/06 03:43:24;;;;;;;13.73;7.70;;;7.50;99.90;;;;;;4125165;28;20088;-61
2022/04/06 03:45:25;;;;;;;11.83;7.27;;;7.50;99.90;;;;;;4126868;28;20042;-58
2022/04/06 03:47:31;;;;;;;16.50;8.30;;;7.40;99.90;;;;;;4125046;28;20026;-63
2022/04/06 03:49:32;;;;;;;16.17;8.40;;;7.40;99.90;;;;;;4110519;28;20050;-55
2022/04/06 03:51:33;;;;;;;22.43;9.73;;;7.40;99.90;;;;;;4109247;28;20052;-55
2022/04/06 03:53:35;;;;;;;22.20;10.60;;;7.30;99.90;;;;;;4110576;28;20042;-53
2022/04/06 03:55:36;;;;;;;22.10;10.53;;;7.30;99.90;;;;;;4113506;28;20026;-54
2022/04/06 03:57:38;;;;;;;23.93;10.73;;;7.20;99.90;;;;;;4134586;28;20030;-59
2022/04/06 03:59:39;;;;;;;23.70;11.17;;;7.10;99.90;;;;;;4128625;28;20045;-55
2022/04/06 04:01:40;;;;;;;29.20;12.97;;;7.10;99.90;;;;;;4126031;28;20023;-59
2022/04/06 04:03:41;;;;;;;24.37;10.87;;;7.10;99.90;;;;;;4125240;28;20097;-56
2022/04/06 04:05:43;;;;;;;23.73;12.07;;;7.10;99.90;;;;;;4125014;28;20371;-56
2022/04/06 04:07:44;;;;;;;25.63;11.77;;;7.10;99.90;;;;;;4132471;28;20029;-58
2022/04/06 04:09:46;;;;;;;21.40;12.70;;;7.20;99.90;;;;;;4126673;28;20038;-55
2022/04/06 04:11:48;;;;;;;24.80;12.43;;;7.20;99.90;;;;;;4127186;28;20105;-56
2022/04/06 04:13:49;;;;;;;28.03;11.63;;;7.20;99.90;;;;;;4133687;28;20103;-56
2022/04/06 04:15:50;;;;;;;23.37;11.73;;;7.20;99.90;;;;;;4141826;28;20391;-55
2022/04/06 04:17:52;;;;;;;23.20;11.13;;;7.30;99.90;;;;;;4141022;28;20470;-57
2022/04/06 04:19:53;;;;;;;24.43;12.77;;;7.40;99.90;;;;;;4142388;28;20030;-59
2022/04/06 04:21:54;;;;;;;22.10;11.13;;;7.40;99.90;;;;;;4140665;28;20434;-60
2022/04/06 04:23:55;;;;;;;22.63;11.57;;;7.50;99.90;;;;;;4141955;28;20034;-58
2022/04/06 04:25:56;;;;;;;25.43;12.47;;;7.50;99.90;;;;;;4139050;28;20050;-60
2022/04/06 04:27:58;;;;;;;25.70;11.70;;;7.50;99.90;;;;;;4133875;28;20031;-60
2022/04/06 04:29:59;;;;;;;22.67;11.10;;;7.50;99.90;;;;;;4124144;28;20026;-51
2022/04/06 04:32:00;;;;;;;21.07;10.97;;;7.50;99.90;;;;;;4139433;28;20045;-57
2022/04/06 04:34:02;;;;;;;19.13;9.60;;;7.40;99.90;;;;;;4140504;28;20153;-57
2022/04/06 04:36:03;;;;;;;21.07;9.63;;;7.40;99.90;;;;;;4124957;28;20116;-58
2022/04/06 04:38:05;;;;;;;18.97;8.87;;;7.40;99.90;;;;;;4131622;28;20041;-58
2022/04/06 04:40:07;;;;;;;18.73;9.53;;;7.40;99.90;;;;;;4128577;28;20034;-52
2022/04/06 04:42:08;;;;;;;19.17;9.60;;;7.40;99.90;;;;;;4125386;28;20046;-58
2022/04/06 04:44:09;;;;;;;22.27;10.13;;;7.40;99.90;;;;;;4125907;28;20043;-56
2022/04/06 04:46:11;;;;;;;21.17;10.50;;;7.50;99.90;;;;;;4119479;28;20046;-57
2022/04/06 04:48:12;;;;;;;14.80;9.77;;;7.40;99.90;;;;;;4125019;28;20034;-58
2022/04/06 04:50:14;;;;;;;22.37;10.77;;;7.50;99.90;;;;;;4113140;28;20026;-59
2022/04/06 04:52:15;;;;;;;25.03;11.97;;;7.50;99.90;;;;;;4123804;28;20105;-59
2022/04/06 04:54:17;;;;;;;21.87;12.17;;;7.50;99.90;;;;;;4124624;28;20058;-57
2022/04/06 04:56:19;;;;;;;24.77;11.10;;;7.40;99.90;;;;;;4123601;28;20038;-56
2022/04/06 04:58:20;;;;;;;15.70;9.27;;;7.40;99.90;;;;;;4125277;28;20066;-56
2022/04/06 05:00:21;;;;;;;18.30;10.03;;;7.40;99.90;;;;;;4123341;28;20087;-58
2022/04/06 05:02:22;;;;;;;23.90;10.77;;;7.40;99.90;;;;;;4126232;28;20100;-55
2022/04/06 05:04:24;;;;;;;20.03;11.27;;;7.50;99.90;;;;;;4138699;28;20080;-56
2022/04/06 05:06:25;;;;;;;19.97;11.20;;;7.50;99.90;;;;;;4129617;28;20035;-56
2022/04/06 05:08:26;;;;;;;24.30;12.10;;;7.50;99.90;;;;;;4124228;28;20034;-55
2022/04/06 05:10:27;;;;;;;36.67;14.27;;;7.60;99.90;;;;;;4132657;28;20041;-57
2022/04/06 05:12:28;;;;;;;26.53;11.87;;;7.70;99.90;;;;;;4140784;28;20041;-55
2022/04/06 05:14:31;;;;;;;28.70;12.00;;;7.80;99.90;;;;;;4140051;28;20119;-57
2022/04/06 05:16:32;;;;;;;33.53;13.07;;;7.90;99.90;;;;;;4141102;28;20083;-59
2022/04/06 05:18:33;;;;;;;31.80;12.70;;;7.90;99.90;;;;;;4140178;28;20041;-58
2022/04/06 05:20:34;;;;;;;30.00;13.17;;;7.90;99.90;;;;;;4141469;28;20482;-57
2022/04/06 05:22:36;;;;;;;34.77;14.47;;;7.90;99.90;;;;;;4139923;28;20104;-55
2022/04/06 05:24:37;;;;;;;35.97;15.30;;;7.90;99.90;;;;;;4140944;28;20800;-54
2022/04/06 05:26:38;;;;;;;31.60;13.53;;;8.00;99.90;;;;;;4139775;28;20053;-55
2022/04/06 05:28:39;;;;;;;36.40;13.40;;;8.10;99.90;;;;;;4140860;28;20030;-54
2022/04/06 05:30:41;;;;;;;29.13;11.63;;;8.20;99.90;;;;;;4139494;28;20025;-54
2022/04/06 05:32:43;;;;;;;24.03;12.37;;;8.30;99.90;;;;;;4140381;28;20100;-57
2022/04/06 05:34:44;;;;;;;14.77;9.87;;;8.40;99.90;;;;;;4139053;28;20046;-56
2022/04/06 05:36:46;;;;;;;18.40;11.40;;;8.50;99.90;;;;;;4139787;28;20041;-59
2022/04/06 05:38:48;;;;;;;22.77;10.83;;;8.80;99.90;;;;;;4140876;28;20445;-60
2022/04/06 05:40:49;;;;;;;17.60;9.87;;;9.40;99.90;;;;;;4139588;28;20441;-57
2022/04/06 05:42:50;;;;;;;21.17;10.10;;;10.00;99.90;;;;;;4141047;28;20466;-59
2022/04/06 05:44:52;;;;;;;18.20;10.53;;;10.80;99.90;;;;;;4138587;28;20034;-58
2022/04/06 05:46:53;;;;;;;19.67;10.33;;;11.30;99.90;;;;;;4140565;28;20639;-59
2022/04/06 05:48:54;;;;;;;20.37;10.43;;;11.70;99.90;;;;;;4138880;28;20041;-55
2022/04/06 05:50:55;;;;;;;20.73;10.73;;;12.10;99.90;;;;;;4138907;28;20068;-57
2022/04/06 05:52:56;;;;;;;23.83;12.13;;;12.10;99.90;;;;;;4139061;28;20030;-57
2022/04/06 05:54:57;;;;;;;15.77;10.53;;;12.60;99.90;;;;;;4140546;28;20433;-57
2022/04/06 05:56:58;;;;;;;17.63;10.50;;;13.10;99.90;;;;;;4139499;28;20516;-55
2022/04/06 05:58:59;;;;;;;20.23;10.97;;;13.40;99.90;;;;;;4140839;28;20049;-57
2022/04/06 06:01:01;;;;;;;17.50;10.00;;;13.60;99.90;;;;;;4138738;28;20033;-56
2022/04/06 06:03:02;;;;;;;20.70;11.17;;;14.10;99.90;;;;;;4140376;28;20092;-63
2022/04/06 06:05:03;;;;;;;23.57;10.27;;;14.70;99.90;;;;;;4139627;28;20093;-58
2022/04/06 06:07:05;;;;;;;28.30;11.63;;;15.00;98.40;;;;;;4140106;28;20096;-58
2022/04/06 06:09:06;;;;;;;22.87;13.03;;;14.90;97.50;;;;;;4139680;28;20038;-57
2022/04/06 06:11:08;;;;;;;22.17;12.23;;;14.90;97.10;;;;;;4139179;28;20518;-56
2022/04/06 06:13:09;;;;;;;22.93;12.43;;;15.00;96.60;;;;;;4140954;28;20589;-56
2022/04/06 06:15:11;;;;;;;17.30;12.07;;;15.10;96.10;;;;;;4139185;28;20046;-58
2022/04/06 06:17:12;;;;;;;21.70;11.87;;;15.50;95.70;;;;;;4140755;28;20042;-58
2022/04/06 06:19:13;;;;;;;15.60;11.23;;;15.70;94.80;;;;;;4139083;28;20064;-58
2022/04/06 06:21:14;;;;;;;20.90;10.87;;;15.90;93.80;;;;;;4140566;28;20077;-58
2022/04/06 06:23:15;;;;;;;19.93;10.70;;;16.30;93.20;;;;;;4139235;28;20041;-59
2022/04/06 06:25:16;;;;;;;20.77;10.73;;;16.20;92.40;;;;;;4140115;28;20557;-59
2022/04/06 06:27:19;;;;;;;24.40;10.90;;;15.90;92.30;;;;;;4139031;28;20560;-58
2022/04/06 06:29:22;;;;;;;16.67;11.07;;;16.10;92.10;;;;;;4140278;28;20034;-58
2022/04/06 06:31:23;;;;;;;18.70;10.13;;;16.60;92.00;;;;;;4138787;28;20446;-63
2022/04/06 06:33:24;;;;;;;20.07;9.80;;;17.10;91.00;;;;;;4140206;28;20038;-62
2022/04/06 06:35:26;;;;;;;17.55;10.48;;;17.60;90.20;;;;;;4138914;28;20042;-57
2022/04/06 06:37:27;;;;;;;14.73;9.93;;;17.50;89.00;;;;;;4139773;28;20025;-57
2022/04/06 06:39:28;;;;;;;16.75;10.18;;;17.30;87.30;;;;;;4139056;28;20505;-59
2022/04/06 06:41:30;;;;;;;17.33;10.55;;;17.30;87.90;;;;;;4138957;28;20502;-57
2022/04/06 06:43:31;;;;;;;25.30;10.43;;;16.90;87.20;;;;;;4140074;28;20046;-58
2022/04/06 06:45:32;;;;;;;17.80;10.70;;;16.30;87.60;;;;;;4138674;28;20454;-59
2022/04/06 06:47:33;;;;;;;21.98;9.95;;;15.80;88.70;;;;;;4139914;28;20046;-56
2022/04/06 06:49:34;;;;;;;17.55;10.60;;;15.10;89.60;;;;;;4138722;28;20046;-56
2022/04/06 06:51:35;;;;;;;17.30;10.38;;;14.80;90.60;;;;;;4139907;28;20037;-54
2022/04/06 06:53:37;;;;;;;15.93;10.85;;;14.70;90.80;;;;;;4138623;28;20088;-54
2022/04/06 06:55:38;;;;;;;15.23;9.80;;;14.60;90.90;;;;;;4139768;28;20033;-56
2022/04/06 06:57:39;;;;;;;16.13;9.57;;;14.60;91.10;;;;;;4139010;28;20038;-58
2022/04/06 06:59:41;;;;;;;24.27;11.23;;;14.90;90.70;;;;;;4140060;28;20034;-59
2022/04/06 07:01:43;;;;;;;21.67;10.83;;;14.90;90.70;;;;;;4138103;28;20038;-59
2022/04/06 07:03:44;;;;;;;21.07;10.00;;;15.10;90.60;;;;;;4139774;28;20478;-56
2022/04/06 07:05:45;;;;;;;18.30;10.23;;;14.80;90.60;;;;;;4138614;28;20030;-55
2022/04/06 07:08:01;;;;;;;21.10;11.43;;;14.40;90.80;;;;;;4140274;28;20092;-56
2022/04/06 07:10:02;;;;;;;19.23;11.43;;;14.30;91.00;;;;;;4141322;28;20030;-57
2022/04/06 07:12:03;;;;;;;16.57;9.50;;;14.10;91.40;;;;;;4142731;28;20034;-58
2022/04/06 07:14:04;;;;;;;15.10;9.27;;;14.00;91.70;;;;;;4141622;28;20096;-57
2022/04/06 07:16:06;;;;;;;14.77;9.03;;;13.80;91.70;;;;;;4142159;28;20046;-58
2022/04/06 07:18:08;;;;;;;9.90;5.87;;;13.60;92.30;;;;;;4143053;28;20042;-58
2022/04/06 07:20:10;;;;;;;17.47;8.20;;;13.50;92.20;;;;;;4141666;28;20096;-57
2022/04/06 07:22:12;;;;;;;9.80;6.93;;;13.40;92.50;;;;;;4143008;28;20026;-56
2022/04/06 07:24:13;;;;;;;9.77;6.20;;;13.20;92.70;;;;;;4141985;28;20034;-57
2022/04/06 07:26:16;;;;;;;12.13;7.27;;;13.00;92.90;;;;;;4142816;28;20447;-59
2022/04/06 07:28:18;;;;;;;13.70;6.90;;;13.00;93.20;;;;;;4141435;28;20038;-57
2022/04/06 07:30:19;;;;;;;13.03;7.20;;;13.00;93.70;;;;;;4143042;28;20030;-56
2022/04/06 07:34:27;;;;;;;10.63;6.50;;;13.30;93.50;;;;;;4141748;28;20096;-51
2022/04/06 07:36:28;;;;;;;10.33;6.23;;;13.40;93.40;;;;;;4141654;28;20424;-60
2022/04/06 07:38:30;;;;;;;7.23;5.33;;;13.70;93.00;;;;;;4143781;28;20084;-56
2022/04/06 07:40:31;;;;;;;11.77;5.73;;;13.70;92.60;;;;;;4141847;28;20049;-57
2022/04/06 07:42:33;;;;;;;6.83;5.47;;;13.50;92.70;;;;;;4143131;28;20068;-58
2022/04/06 07:44:34;;;;;;;12.53;5.30;;;13.60;92.60;;;;;;4142251;28;20038;-56
2022/04/06 07:46:35;;;;;;;13.87;6.17;;;13.80;92.60;;;;;;4143294;28;20108;-58
2022/04/06 07:48:38;;;;;;;7.50;5.27;;;13.80;92.30;;;;;;4141439;28;20107;-55
2022/04/06 07:50:39;;;;;;;8.60;4.37;;;13.80;92.10;;;;;;4143593;28;20038;-54
2022/04/06 07:52:41;;;;;;;6.30;4.30;;;13.70;92.00;;;;;;4142402;28;20394;-60
2022/04/06 07:54:42;;;;;;;8.63;4.60;;;13.60;91.90;;;;;;4142800;28;20045;-57
2022/04/06 07:56:43;;;;;;;7.40;5.27;;;13.60;91.80;;;;;;4142409;28;20025;-57
2022/04/06 07:58:45;;;;;;;6.40;4.10;;;13.60;92.00;;;;;;4141968;28;20046;-57
2022/04/06 08:00:46;;;;;;;11.47;4.80;;;13.50;91.80;;;;;;4142726;28;20139;-56
2022/04/06 08:02:49;;;;;;;9.57;5.23;;;13.60;91.80;;;;;;4141737;28;20037;-56
2022/04/06 08:04:50;;;;;;;6.67;5.30;;;13.70;91.60;;;;;;4142964;28;20075;-62
2022/04/06 08:06:51;;;;;;;5.67;4.03;;;13.80;91.50;;;;;;4141417;28;20029;-57
2022/04/06 08:08:53;;;;;;;7.97;4.67;;;13.80;91.40;;;;;;4143346;28;20525;-59
2022/04/06 08:10:54;;;;;;;5.07;3.70;;;13.80;91.40;;;;;;4141802;28;20460;-59
2022/04/06 08:12:55;;;;;;;4.83;3.77;;;13.80;91.20;;;;;;4143526;28;20050;-58
2022/04/06 08:14:56;;;;;;;5.87;4.07;;;13.60;91.10;;;;;;4141614;28;20555;-57
2022/04/06 08:16:57;;;;;;;5.10;3.90;;;13.60;91.20;;;;;;4142555;28;20095;-58
2022/04/06 08:18:59;;;;;;;5.47;4.00;;;13.60;91.10;;;;;;4140581;28;20092;-55
2022/04/06 08:21:00;;;;;;;7.17;4.37;;;13.70;91.10;;;;;;4142016;28;20042;-55
2022/04/06 08:23:01;;;;;;;6.33;3.97;;;13.70;90.90;;;;;;4141115;28;20636;-57
2022/04/06 08:25:03;;;;;;;6.90;3.73;;;13.70;90.90;;;;;;4142483;28;20042;-57
2022/04/06 08:27:05;;;;;;;3.57;2.90;;;13.70;90.70;;;;;;4141987;28;20481;-56
2022/04/06 08:29:06;;;;;;;6.67;3.80;;;13.70;90.70;;;;;;4142101;28;20091;-56
2022/04/06 08:31:07;;;;;;;5.10;3.93;;;13.70;90.70;;;;;;4142533;28;20421;-59
2022/04/06 08:33:10;;;;;;;4.47;3.43;;;13.60;90.70;;;;;;4140813;28;20046;-59
2022/04/06 08:35:12;;;;;;;5.90;4.67;;;13.60;90.70;;;;;;4142610;28;20065;-58
2022/04/06 08:37:13;;;;;;;6.40;3.30;;;13.70;90.70;;;;;;4141187;28;20104;-56
2022/04/06 08:39:14;;;;;;;5.50;3.97;;;13.70;90.60;;;;;;4142255;28;20111;-57
2022/04/06 08:41:18;;;;;;;5.03;3.23;;;13.70;90.50;;;;;;4141577;28;20104;-61
2022/04/06 08:43:20;;;;;;;7.73;4.27;;;13.80;90.40;;;;;;4142323;28;20448;-55
2022/04/06 08:45:21;;;;;;;8.67;4.10;;;13.90;90.40;;;;;;4140935;28;20543;-56
2022/04/06 08:47:23;;;;;;;7.57;4.17;;;13.90;90.30;;;;;;4142568;28;20022;-58
2022/04/06 08:49:24;;;;;;;4.77;3.77;;;14.10;90.20;;;;;;4141116;28;20497;-56
2022/04/06 08:51:28;;;;;;;9.40;4.60;;;14.10;90.20;;;;;;4142146;28;20050;-57
2022/04/06 08:53:29;;;;;;;7.03;3.87;;;14.20;90.10;;;;;;4140399;28;20433;-57
2022/04/06 08:55:32;;;;;;;7.50;4.20;;;14.20;89.90;;;;;;4141867;28;20398;-62
2022/04/06 08:57:34;;;;;;;9.47;3.83;;;14.10;89.80;;;;;;4141233;28;20026;-62
2022/04/06 08:59:35;;;;;;;9.60;4.07;;;14.10;89.80;;;;;;4141872;28;20030;-55
2022/04/06 09:01:36;;;;;;;10.63;4.70;;;14.00;89.80;;;;;;4141297;28;20760;-57
2022/04/06 09:03:37;;;;;;;7.57;4.53;;;14.00;89.80;;;;;;4141924;28;20076;-64
2022/04/06 09:05:38;;;;;;;10.70;4.73;;;13.90;90.00;;;;;;4142127;28;20100;-62
2022/04/06 09:07:40;;;;;;;7.40;4.97;;;14.00;90.10;;;;;;4140633;28;20316;-57
2022/04/06 09:09:42;;;;;;;5.53;4.10;;;14.20;90.00;;;;;;4141621;28;20112;-59
2022/04/06 09:11:44;;;;;;;7.77;4.50;;;14.20;89.90;;;;;;4140705;28;20194;-59
2022/04/06 09:13:47;;;;;;;7.37;4.30;;;14.20;89.70;;;;;;4141505;28;20022;-58
2022/04/06 09:15:51;;;;;;;8.70;5.00;;;14.30;89.90;;;;;;4140467;28;20057;-53
2022/04/06 09:17:53;;;;;;;9.50;4.93;;;14.30;89.70;;;;;;4141633;28;20076;-61
2022/04/06 09:19:59;;;;;;;8.67;5.43;;;14.30;89.90;;;;;;4139004;28;20088;-58
2022/04/06 09:22:00;;;;;;;9.33;4.90;;;14.30;90.00;;;;;;4142627;28;20042;-58
2022/04/06 09:24:01;;;;;;;7.67;4.77;;;14.30;89.60;;;;;;4140194;28;20482;-58
2022/04/06 09:26:03;;;;;;;9.40;5.80;;;14.30;89.80;;;;;;4140429;28;20042;-55
2022/04/06 09:28:06;;;;;;;10.47;5.43;;;14.40;89.70;;;;;;4140616;28;20034;-57
2022/04/06 09:30:08;;;;;;;7.40;5.40;;;14.50;89.40;;;;;;4141502;28;20053;-52
2022/04/06 09:32:10;;;;;;;11.90;5.33;;;14.60;89.00;;;;;;4140129;28;20069;-57
2022/04/06 09:34:12;;;;;;;8.90;4.50;;;14.70;88.80;;;;;;4141134;28;20501;-63
2022/04/06 09:36:18;;;;;;;5.20;3.73;;;14.70;88.20;;;;;;4140804;28;20912;-55
2022/04/06 09:38:25;;;;;;;5.80;3.93;;;14.70;87.40;;;;;;4140631;28;20033;-57
2022/04/06 09:40:29;;;;;;;4.80;3.10;;;14.70;87.40;;;;;;4140227;28;20030;-53
2022/04/06 09:42:31;;;;;;;6.43;3.47;;;14.80;87.70;;;;;;4140272;28;20465;-56
2022/04/06 09:49:33;;;;;;;4.47;3.20;;;15.10;86.10;;;;;;4140374;28;20064;-53
2022/04/06 09:51:38;;;;;;;4.73;3.10;;;15.20;85.80;;;;;;4141426;28;20104;-56
2022/04/06 09:53:39;;;;;;;4.87;3.57;;;15.20;85.40;;;;;;4140479;28;20091;-57
2022/04/06 09:55:42;;;;;;;4.10;3.17;;;15.20;85.30;;;;;;4140373;28;20057;-62
2022/04/06 09:57:58;;;;;;;5.47;3.03;;;15.20;85.30;;;;;;4140829;28;20100;-60
2022/04/06 09:59:59;;;;;;;4.90;3.70;;;15.20;85.30;;;;;;4140600;28;20053;-57
2022/04/06 10:02:07;;;;;;;3.93;3.03;;;15.30;85.50;;;;;;4140502;28;20466;-60
2022/04/06 10:04:11;;;;;;;9.45;4.25;;;15.40;85.40;;;;;;4140769;28;20046;-64
2022/04/06 10:06:12;;;;;;;7.75;4.15;;;15.60;85.20;;;;;;4141573;28;20057;-59
2022/04/06 10:08:14;;;;;;;7.15;4.32;;;15.80;85.20;;;;;;4140146;28;20473;-57
2022/04/06 10:10:16;;;;;;;7.30;3.85;;;15.90;84.90;;;;;;4140962;28;20096;-59
2022/04/06 10:12:17;;;;;;;4.75;3.55;;;16.00;84.80;;;;;;4140456;28;20478;-62
2022/04/06 10:14:19;;;;;;;6.60;3.10;;;16.10;84.70;;;;;;4141221;28;20132;-56
2022/04/06 10:16:22;;;;;;;3.65;2.50;;;16.10;84.50;;;;;;4139716;28;20100;-60
2022/04/06 10:18:27;;;;;;;4.82;3.25;;;16.20;84.50;;;;;;4140749;28;20121;-57
2022/04/06 10:20:50;;;;;;;5.18;3.03;;;16.40;84.20;;;;;;4139885;28;20046;-56
2022/04/06 10:23:00;;;;;;;5.57;3.45;;;16.50;83.80;;;;;;4141063;28;20049;-59
2022/04/06 10:25:13;;;;;;;6.00;3.22;;;16.70;82.90;;;;;;4139673;28;20100;-64
2022/04/06 10:27:34;;;;;;;11.98;3.45;;;16.80;82.50;;;;;;4141105;28;20061;-60
2022/04/06 10:30:14;;;;;;;4.15;3.00;;;16.80;80.90;;;;;;4139924;28;20561;-60
2022/04/06 10:32:34;;;;;;;5.10;3.13;;;16.60;81.00;;;;;;4140600;28;20033;-63
2022/04/06 10:34:38;;;;;;;5.13;2.90;;;16.70;80.70;;;;;;4140037;28;20351;-59
2022/04/06 10:36:44;;;;;;;3.35;2.53;;;16.80;81.60;;;;;;4140060;28;20422;-59
2022/04/06 10:39:06;;;;;;;4.53;2.75;;;16.90;81.10;;;;;;4139598;28;20034;-57
2022/04/06 10:41:08;;;;;;;4.57;2.50;;;17.00;79.40;;;;;;4139888;28;20096;-56
2022/04/06 10:43:50;;;;;;;4.22;2.65;;;17.00;80.50;;;;;;4138803;28;20038;-58
2022/04/06 10:45:52;;;;;;;4.68;2.90;;;17.00;79.30;;;;;;4139435;28;20088;-56